createdAt,value
2023-12-22T00:00:39.848Z,11.35
2023-12-22T00:01:45.281Z,6.47
2023-12-22T00:02:51.926Z,8.65
2023-12-22T00:03:57.244Z,7.10
2023-12-22T00:05:02.509Z,11.80
2023-12-22T00:06:09.469Z,7.97
2023-12-22T00:07:14.840Z,15.10
2023-12-22T00:08:21.443Z,10.05
2023-12-22T00:09:26.677Z,9.05
2023-12-22T00:10:33.362Z,12.13
2023-12-22T00:11:38.614Z,8.27
2023-12-22T00:12:46.991Z,8.68
2023-12-22T00:13:52.322Z,9.30
2023-12-22T00:14:57.590Z,9.00
2023-12-22T00:16:04.589Z,10.10
2023-12-22T00:17:10.014Z,13.73
2023-12-22T00:18:16.743Z,9.27
2023-12-22T00:19:22.159Z,10.13
2023-12-22T00:20:28.855Z,9.02
2023-12-22T00:21:34.624Z,8.65
2023-12-22T00:22:41.777Z,8.63
2023-12-22T00:23:46.968Z,9.30
2023-12-22T00:24:53.558Z,10.98
2023-12-22T00:25:58.971Z,7.85
2023-12-22T00:27:05.730Z,8.63
2023-12-22T00:28:12.711Z,10.40
2023-12-22T00:29:21.295Z,8.40
2023-12-22T00:30:26.998Z,10.95
2023-12-22T00:31:33.700Z,9.75
2023-12-22T00:32:38.984Z,8.55
2023-12-22T00:33:44.505Z,8.93
2023-12-22T00:34:51.114Z,10.13
2023-12-22T00:35:56.403Z,11.02
2023-12-22T00:37:03.034Z,9.77
2023-12-22T00:38:08.407Z,6.93
2023-12-22T00:39:15.050Z,6.95
2023-12-22T00:40:20.371Z,7.88
2023-12-22T00:41:26.916Z,8.45
2023-12-22T00:42:32.205Z,11.15
2023-12-22T00:43:40.513Z,10.63
2023-12-22T00:44:45.785Z,8.02
2023-12-22T00:45:52.354Z,10.10
2023-12-22T00:46:58.488Z,10.00
2023-12-22T00:48:05.138Z,7.77
2023-12-22T00:49:10.577Z,8.07
2023-12-22T00:50:17.285Z,10.00
2023-12-22T00:51:22.516Z,7.25
2023-12-22T00:52:29.087Z,7.85
2023-12-22T00:53:34.384Z,7.53
2023-12-22T00:54:40.945Z,5.60
2023-12-22T00:55:46.407Z,6.37
2023-12-22T00:56:53.265Z,7.25
2023-12-22T00:57:58.531Z,6.03
2023-12-22T00:59:11.631Z,8.75
2023-12-22T01:00:19.103Z,11.07
2023-12-22T01:01:25.754Z,8.25
2023-12-22T01:02:31.027Z,8.15
2023-12-22T01:03:37.669Z,8.65
2023-12-22T01:04:43.315Z,10.98
2023-12-22T01:05:50.087Z,8.68
2023-12-22T01:06:55.687Z,7.40
2023-12-22T01:08:02.357Z,7.20
2023-12-22T01:09:07.980Z,8.30
2023-12-22T01:10:14.936Z,8.60
2023-12-22T01:11:20.407Z,6.40
2023-12-22T01:12:26.982Z,10.18
2023-12-22T01:13:32.288Z,10.50
2023-12-22T01:14:39.289Z,7.75
2023-12-22T01:15:46.413Z,18.55
2023-12-22T01:16:51.672Z,7.35
2023-12-22T01:17:58.351Z,6.80
2023-12-22T01:19:03.845Z,8.25
2023-12-22T01:20:10.935Z,7.13
2023-12-22T01:21:16.263Z,5.93
2023-12-22T01:22:21.721Z,6.13
2023-12-22T01:23:29.165Z,9.20
2023-12-22T01:24:34.460Z,8.80
2023-12-22T01:25:41.108Z,8.73
2023-12-22T01:26:46.433Z,5.93
2023-12-22T01:27:54.866Z,6.65
2023-12-22T01:29:00.155Z,8.50
2023-12-22T01:30:09.119Z,9.13
2023-12-22T01:31:14.385Z,12.43
2023-12-22T01:32:21.995Z,5.45
2023-12-22T01:33:27.407Z,11.50
2023-12-22T01:34:34.110Z,6.90
2023-12-22T01:35:39.454Z,8.68
2023-12-22T01:36:46.062Z,10.80
2023-12-22T01:37:52.138Z,7.15
2023-12-22T01:38:58.931Z,8.65
2023-12-22T01:40:04.192Z,7.57
2023-12-22T01:41:11.416Z,7.47
2023-12-22T01:42:16.740Z,6.65
2023-12-22T01:43:24.247Z,5.43
2023-12-22T01:44:29.526Z,16.08
2023-12-22T01:45:37.746Z,6.88
2023-12-22T01:46:43.189Z,8.73
2023-12-22T01:47:49.949Z,6.45
2023-12-22T01:48:56.854Z,7.07
2023-12-22T01:50:02.450Z,8.15
2023-12-22T01:51:09.701Z,7.85
2023-12-22T01:52:15.136Z,9.07
2023-12-22T01:53:21.833Z,10.07
2023-12-22T01:54:27.101Z,9.50
2023-12-22T01:55:34.043Z,7.07
2023-12-22T01:56:39.672Z,9.48
2023-12-22T01:57:46.670Z,8.60
2023-12-22T01:58:52.446Z,6.10
2023-12-22T01:59:59.063Z,8.82
2023-12-22T02:01:06.818Z,8.70
2023-12-22T02:02:13.420Z,9.20
2023-12-22T02:03:18.858Z,9.35
2023-12-22T02:04:26.057Z,13.95
2023-12-22T02:05:32.100Z,5.78
2023-12-22T02:06:40.308Z,7.43
2023-12-22T02:07:46.253Z,7.93
2023-12-22T02:08:51.868Z,10.75
2023-12-22T02:09:58.454Z,6.07
2023-12-22T02:11:03.754Z,10.05
2023-12-22T02:12:10.853Z,8.30
2023-12-22T02:13:16.563Z,6.85
2023-12-22T02:14:23.249Z,6.38
2023-12-22T02:15:28.554Z,5.85
2023-12-22T02:16:44.210Z,7.38
2023-12-22T02:17:55.512Z,13.57
2023-12-22T02:19:05.548Z,7.45
2023-12-22T02:20:12.247Z,9.57
2023-12-22T02:21:18.802Z,11.40
2023-12-22T02:22:25.309Z,6.05
2023-12-22T02:23:33.653Z,9.07
2023-12-22T02:24:39.633Z,6.70
2023-12-22T02:25:46.423Z,6.50
2023-12-22T02:26:54.085Z,6.70
2023-12-22T02:28:03.340Z,11.35
2023-12-22T02:29:09.318Z,6.00
2023-12-22T02:30:18.503Z,7.10
2023-12-22T02:31:32.002Z,7.70
2023-12-22T02:32:39.901Z,7.60
2023-12-22T02:33:46.861Z,5.60
2023-12-22T02:34:53.342Z,10.20
2023-12-22T02:36:01.490Z,10.85
2023-12-22T02:37:09.334Z,8.10
2023-12-22T02:38:17.458Z,7.55
2023-12-22T02:39:24.828Z,5.15
2023-12-22T02:40:31.559Z,9.25
2023-12-22T02:41:37.197Z,8.18
2023-12-22T02:42:43.973Z,6.05
2023-12-22T02:43:49.305Z,7.55
2023-12-22T02:44:56.204Z,6.78
2023-12-22T02:46:01.452Z,19.70
2023-12-22T02:47:08.342Z,7.50
2023-12-22T02:48:14.065Z,7.05
2023-12-22T02:49:21.205Z,6.80
2023-12-22T02:50:26.590Z,5.70
2023-12-22T02:51:33.543Z,5.68
2023-12-22T02:52:39.483Z,7.18
2023-12-22T02:53:46.109Z,11.15
2023-12-22T02:54:53.012Z,5.88
2023-12-22T02:55:59.645Z,7.43
2023-12-22T02:57:04.933Z,9.17
2023-12-22T02:58:11.499Z,9.27
2023-12-22T02:59:16.868Z,12.32
2023-12-22T03:00:23.810Z,8.18
2023-12-22T03:01:29.047Z,8.98
2023-12-22T03:02:35.615Z,6.95
2023-12-22T03:03:40.922Z,10.23
2023-12-22T03:04:48.967Z,10.75
2023-12-22T03:05:54.285Z,11.38
2023-12-22T03:07:00.901Z,16.60
2023-12-22T03:08:06.521Z,6.30
2023-12-22T03:09:13.055Z,7.35
2023-12-22T03:10:20.083Z,11.35
2023-12-22T03:11:26.646Z,9.82
2023-12-22T03:12:32.410Z,20.27
2023-12-22T03:13:39.038Z,10.10
2023-12-22T03:14:44.318Z,11.93
2023-12-22T03:15:51.592Z,11.20
2023-12-22T03:16:56.859Z,6.07
2023-12-22T03:18:03.611Z,10.13
2023-12-22T03:19:09.820Z,8.37
2023-12-22T03:20:16.557Z,5.97
2023-12-22T03:21:21.876Z,10.70
2023-12-22T03:22:28.550Z,6.47
2023-12-22T03:23:33.864Z,7.63
2023-12-22T03:24:41.154Z,11.65
2023-12-22T03:25:48.303Z,7.43
2023-12-22T03:26:55.002Z,30.92
2023-12-22T03:28:00.350Z,11.70
2023-12-22T03:29:06.978Z,7.88
2023-12-22T03:30:13.233Z,10.47
2023-12-22T03:31:19.899Z,8.85
2023-12-22T03:32:25.275Z,8.95
2023-12-22T03:33:31.973Z,9.88
2023-12-22T03:34:37.302Z,10.05
2023-12-22T03:35:43.874Z,7.45
2023-12-22T03:36:51.181Z,7.57
2023-12-22T03:37:57.846Z,7.30
2023-12-22T03:39:03.249Z,15.07
2023-12-22T03:40:10.828Z,7.40
2023-12-22T03:41:17.734Z,8.80
2023-12-22T03:42:24.268Z,7.82
2023-12-22T03:43:29.538Z,10.27
2023-12-22T03:44:36.150Z,10.40
2023-12-22T03:45:41.390Z,6.63
2023-12-22T03:46:48.088Z,6.57
2023-12-22T03:47:53.439Z,12.50
2023-12-22T03:49:00.195Z,6.38
2023-12-22T03:50:05.458Z,10.65
2023-12-22T03:51:13.267Z,6.50
2023-12-22T03:52:18.542Z,11.50
2023-12-22T03:53:25.059Z,8.10
2023-12-22T03:54:30.296Z,8.48
2023-12-22T03:55:36.936Z,7.78
2023-12-22T03:56:43.919Z,6.63
2023-12-22T03:57:50.763Z,6.18
2023-12-22T03:58:56.214Z,11.27
2023-12-22T04:00:02.909Z,7.38
2023-12-22T04:01:10.245Z,8.63
2023-12-22T04:02:16.878Z,9.30
2023-12-22T04:03:22.190Z,12.37
2023-12-22T04:04:30.553Z,8.07
2023-12-22T04:05:35.831Z,6.80
2023-12-22T04:06:44.030Z,8.38
2023-12-22T04:07:49.860Z,7.93
2023-12-22T04:08:56.573Z,9.55
2023-12-22T04:10:02.246Z,9.32
2023-12-22T04:11:08.903Z,8.75
2023-12-22T04:12:15.919Z,6.45
2023-12-22T04:13:22.452Z,8.27
2023-12-22T04:14:27.761Z,5.50
2023-12-22T04:15:34.313Z,6.43
2023-12-22T04:16:40.963Z,6.75
2023-12-22T04:17:47.856Z,7.13
2023-12-22T04:18:53.373Z,10.02
2023-12-22T04:19:59.969Z,10.25
2023-12-22T04:21:05.371Z,8.20
2023-12-22T04:22:10.724Z,8.70
2023-12-22T04:23:17.365Z,7.72
2023-12-22T04:24:22.605Z,7.53
2023-12-22T04:25:29.257Z,8.80
2023-12-22T04:26:34.484Z,7.70
2023-12-22T04:27:42.832Z,8.45
2023-12-22T04:28:48.178Z,7.78
2023-12-22T04:29:54.913Z,7.22
2023-12-22T04:31:00.212Z,8.48
2023-12-22T04:32:07.294Z,12.32
2023-12-22T04:33:12.549Z,7.88
2023-12-22T04:34:19.739Z,6.93
2023-12-22T04:35:25.028Z,9.55
2023-12-22T04:36:31.595Z,6.47
2023-12-22T04:37:36.957Z,8.70
2023-12-22T04:38:44.126Z,9.15
2023-12-22T04:39:49.427Z,8.55
2023-12-22T04:40:56.112Z,6.43
2023-12-22T04:42:01.518Z,6.97
2023-12-22T04:43:09.815Z,8.35
2023-12-22T04:44:15.065Z,5.57
2023-12-22T04:45:21.629Z,10.05
2023-12-22T04:46:26.858Z,7.65
2023-12-22T04:47:33.547Z,11.40
2023-12-22T04:48:39.091Z,8.18
2023-12-22T04:49:45.759Z,4.97
2023-12-22T04:50:51.071Z,12.68
2023-12-22T04:51:57.847Z,6.40
2023-12-22T04:53:05.806Z,7.78
2023-12-22T04:54:11.238Z,12.70
2023-12-22T04:55:18.040Z,6.53
2023-12-22T04:56:23.647Z,6.97
2023-12-22T04:57:30.218Z,6.38
2023-12-22T04:58:37.194Z,9.40
2023-12-22T04:59:43.713Z,7.95
2023-12-22T05:00:49.073Z,8.05
2023-12-22T05:01:56.136Z,5.97
2023-12-22T05:03:01.784Z,5.75
2023-12-22T05:04:10.732Z,6.40
2023-12-22T05:05:17.494Z,7.32
2023-12-22T05:06:24.133Z,7.07
2023-12-22T05:07:30.433Z,10.70
2023-12-22T05:08:37.033Z,58.22
2023-12-22T05:09:42.278Z,8.20
2023-12-22T05:10:48.998Z,10.85
2023-12-22T05:11:54.372Z,10.20
2023-12-22T05:13:01.039Z,7.60
2023-12-22T05:14:08.071Z,9.02
2023-12-22T05:15:13.869Z,9.40
2023-12-22T05:16:20.528Z,7.05
2023-12-22T05:17:25.803Z,8.52
2023-12-22T05:18:32.465Z,7.80
2023-12-22T05:19:37.756Z,10.25
2023-12-22T05:20:44.400Z,9.97
2023-12-22T05:21:49.616Z,8.75
2023-12-22T05:22:59.470Z,7.63
2023-12-22T05:24:05.509Z,10.38
2023-12-22T05:25:13.584Z,5.85
2023-12-22T05:26:21.660Z,5.65
2023-12-22T05:27:28.452Z,6.28
2023-12-22T05:28:33.774Z,7.40
2023-12-22T05:29:42.073Z,7.82
2023-12-22T05:30:47.333Z,9.07
2023-12-22T05:31:54.048Z,10.10
2023-12-22T05:32:59.409Z,7.75
2023-12-22T05:34:06.384Z,6.47
2023-12-22T05:35:13.142Z,5.68
2023-12-22T05:36:19.949Z,9.80
2023-12-22T05:37:25.190Z,8.63
2023-12-22T05:38:31.793Z,8.60
2023-12-22T05:39:37.016Z,9.20
2023-12-22T05:40:43.664Z,7.50
2023-12-22T05:41:49.299Z,8.18
2023-12-22T05:42:55.867Z,8.97
2023-12-22T05:44:01.257Z,9.18
2023-12-22T05:45:11.002Z,10.63
2023-12-22T05:46:16.342Z,6.20
2023-12-22T05:47:23.136Z,12.02
2023-12-22T05:48:28.606Z,41.25
2023-12-22T05:49:35.468Z,31.33
2023-12-22T05:50:40.925Z,16.38
2023-12-22T05:51:47.559Z,17.85
2023-12-22T05:52:52.861Z,15.93
2023-12-22T05:53:59.516Z,9.23
2023-12-22T05:55:05.026Z,6.50
2023-12-22T05:56:22.659Z,9.68
2023-12-22T05:57:29.404Z,9.05
2023-12-22T05:58:35.955Z,7.32
2023-12-22T05:59:41.261Z,8.40
2023-12-22T06:00:49.781Z,6.50
2023-12-22T06:01:57.685Z,8.18
2023-12-22T06:03:06.699Z,8.02
2023-12-22T06:04:12.089Z,5.82
2023-12-22T06:05:18.656Z,9.27
2023-12-22T06:06:24.013Z,6.65
2023-12-22T06:07:31.031Z,9.45
2023-12-22T06:08:36.297Z,9.25
2023-12-22T06:09:42.929Z,7.18
2023-12-22T06:10:48.142Z,8.75
2023-12-22T06:11:54.778Z,8.25
2023-12-22T06:13:00.458Z,7.78
2023-12-22T06:14:05.755Z,8.02
2023-12-22T06:15:13.096Z,8.27
2023-12-22T06:16:20.946Z,9.10
2023-12-22T06:17:27.589Z,9.93
2023-12-22T06:18:32.842Z,8.50
2023-12-22T06:19:41.099Z,8.60
2023-12-22T06:20:46.310Z,11.82
2023-12-22T06:21:52.986Z,7.07
2023-12-22T06:22:58.770Z,7.80
2023-12-22T06:24:05.493Z,7.50
2023-12-22T06:25:12.252Z,9.05
2023-12-22T06:26:18.908Z,8.45
2023-12-22T06:27:24.235Z,8.30
2023-12-22T06:28:31.014Z,6.32
2023-12-22T06:29:36.520Z,6.45
2023-12-22T06:30:43.107Z,9.73
2023-12-22T06:31:53.114Z,6.35
2023-12-22T06:32:59.900Z,9.10
2023-12-22T06:34:05.397Z,7.55
2023-12-22T06:35:17.830Z,7.35
2023-12-22T06:36:23.966Z,7.70
2023-12-22T06:37:30.666Z,7.22
2023-12-22T06:38:36.147Z,7.80
2023-12-22T06:39:43.380Z,8.50
2023-12-22T06:40:49.657Z,8.75
2023-12-22T06:41:56.313Z,12.23
2023-12-22T06:43:01.723Z,8.48
2023-12-22T06:44:08.498Z,9.10
2023-12-22T06:45:14.238Z,8.55
2023-12-22T06:46:21.122Z,8.57
2023-12-22T06:47:30.298Z,7.45
2023-12-22T06:48:40.191Z,8.88
2023-12-22T06:49:46.166Z,8.67
2023-12-22T06:50:52.970Z,7.35
2023-12-22T06:51:58.326Z,9.02
2023-12-22T06:53:10.907Z,9.43
2023-12-22T06:54:24.205Z,8.13
2023-12-22T06:55:31.163Z,6.32
2023-12-22T06:56:37.497Z,8.07
2023-12-22T06:57:44.726Z,7.22
2023-12-22T06:58:51.321Z,8.73
2023-12-22T06:59:58.011Z,14.57
2023-12-22T07:01:03.408Z,10.97
2023-12-22T07:02:17.227Z,7.80
2023-12-22T07:03:27.818Z,8.20
2023-12-22T07:05:10.441Z,10.88
2023-12-22T07:06:15.815Z,15.18
2023-12-22T07:07:23.352Z,7.95
2023-12-22T07:08:28.830Z,10.50
2023-12-22T07:09:36.752Z,8.45
2023-12-22T07:10:42.180Z,28.23
2023-12-22T07:11:49.521Z,10.23
2023-12-22T07:12:55.383Z,8.43
2023-12-22T07:14:02.322Z,6.63
2023-12-22T07:15:10.996Z,8.57
2023-12-22T07:16:18.235Z,6.57
2023-12-22T07:17:23.712Z,9.50
2023-12-22T07:18:33.086Z,7.57
2023-12-22T07:19:38.456Z,8.27
2023-12-22T07:20:45.205Z,10.52
2023-12-22T07:21:50.719Z,20.67
2023-12-22T07:22:58.973Z,11.77
2023-12-22T07:24:04.490Z,6.43
2023-12-22T07:25:13.577Z,6.80
2023-12-22T07:26:20.394Z,7.78
2023-12-22T07:27:28.808Z,9.38
2023-12-22T07:28:34.388Z,7.35
2023-12-22T07:29:41.120Z,13.68
2023-12-22T07:30:46.634Z,26.70
2023-12-22T07:31:53.492Z,11.77
2023-12-22T07:32:58.875Z,12.52
2023-12-22T07:34:06.648Z,10.65
2023-12-22T07:35:14.389Z,7.10
2023-12-22T07:36:22.939Z,8.25
2023-12-22T07:37:29.947Z,9.20
2023-12-22T07:38:35.370Z,8.27
2023-12-22T07:39:42.092Z,6.45
2023-12-22T07:40:47.556Z,7.90
2023-12-22T07:41:54.316Z,8.98
2023-12-22T07:42:59.695Z,10.43
2023-12-22T07:44:08.223Z,6.40
2023-12-22T07:45:13.931Z,6.18
2023-12-22T07:46:24.445Z,8.83
2023-12-22T07:47:30.500Z,17.52
2023-12-22T07:48:37.532Z,7.88
2023-12-22T07:49:45.967Z,9.13
2023-12-22T07:50:53.998Z,7.38
2023-12-22T07:52:00.080Z,10.27
2023-12-22T07:53:08.438Z,11.95
2023-12-22T07:54:14.248Z,14.02
2023-12-22T07:55:21.639Z,11.80
2023-12-22T07:56:27.309Z,15.52
2023-12-22T07:57:33.988Z,12.73
2023-12-22T07:58:40.590Z,15.13
2023-12-22T07:59:47.393Z,13.50
2023-12-22T08:00:52.923Z,9.68
2023-12-22T08:01:59.747Z,13.65
2023-12-22T08:03:05.303Z,10.73
2023-12-22T08:04:11.889Z,8.18
2023-12-22T08:05:19.507Z,8.68
2023-12-22T08:06:24.963Z,9.38
2023-12-22T08:07:32.085Z,9.77
2023-12-22T08:08:37.633Z,10.03
2023-12-22T08:09:44.409Z,8.25
2023-12-22T08:10:49.987Z,9.60
2023-12-22T08:11:58.754Z,7.68
2023-12-22T08:13:04.126Z,9.07
2023-12-22T08:14:10.904Z,6.43
2023-12-22T08:15:22.192Z,7.82
2023-12-22T08:16:36.944Z,9.95
2023-12-22T08:17:50.736Z,9.15
2023-12-22T08:18:57.727Z,7.80
2023-12-22T08:20:07.138Z,8.03
2023-12-22T08:21:29.084Z,12.20
2023-12-22T08:22:45.267Z,12.00
2023-12-22T08:23:56.225Z,14.52
2023-12-22T08:25:04.230Z,10.80
2023-12-22T08:26:10.920Z,15.32
2023-12-22T08:27:16.243Z,30.33
2023-12-22T08:28:22.849Z,10.30
2023-12-22T08:29:28.146Z,7.45
2023-12-22T08:30:33.507Z,9.85
2023-12-22T08:31:40.187Z,8.27
2023-12-22T08:32:45.589Z,8.57
2023-12-22T08:33:52.329Z,7.82
2023-12-22T08:34:57.589Z,16.45
2023-12-22T08:36:04.240Z,9.20
2023-12-22T08:37:11.280Z,10.68
2023-12-22T08:38:18.060Z,9.27
2023-12-22T08:39:23.584Z,10.85
2023-12-22T08:40:30.533Z,7.30
2023-12-22T08:41:39.263Z,7.75
2023-12-22T08:42:46.210Z,9.90
2023-12-22T08:43:51.535Z,8.43
2023-12-22T08:44:58.140Z,7.93
2023-12-22T08:46:03.505Z,9.07
2023-12-22T08:47:10.250Z,9.02
2023-12-22T08:48:15.736Z,10.13
2023-12-22T08:49:21.169Z,11.30
2023-12-22T08:50:27.899Z,10.05
2023-12-22T08:51:33.208Z,9.18
2023-12-22T08:52:41.565Z,9.45
2023-12-22T08:53:46.832Z,8.80
2023-12-22T08:54:53.473Z,9.88
2023-12-22T08:55:59.083Z,8.13
2023-12-22T08:57:05.721Z,7.78
2023-12-22T08:58:10.951Z,14.65
2023-12-22T08:59:17.597Z,10.45
2023-12-22T09:00:23.246Z,9.05
2023-12-22T09:01:29.966Z,10.00
2023-12-22T09:02:35.383Z,9.32
2023-12-22T09:03:46.190Z,10.85
2023-12-22T09:04:51.551Z,8.77
2023-12-22T09:05:58.203Z,9.32
2023-12-22T09:07:03.466Z,13.25
2023-12-22T09:08:12.147Z,10.98
2023-12-22T09:09:17.466Z,11.85
2023-12-22T09:10:24.089Z,12.15
2023-12-22T09:11:29.562Z,8.80
2023-12-22T09:12:36.177Z,9.20
2023-12-22T09:13:41.641Z,9.05
2023-12-22T09:14:48.241Z,9.30
2023-12-22T09:15:53.552Z,9.37
2023-12-22T09:17:00.369Z,10.45
2023-12-22T09:18:05.871Z,11.60
2023-12-22T09:19:12.667Z,12.95
2023-12-22T09:20:18.164Z,10.32
2023-12-22T09:21:25.034Z,10.57
2023-12-22T09:22:30.389Z,8.10
2023-12-22T09:23:39.003Z,8.43
2023-12-22T09:24:44.541Z,8.02
2023-12-22T09:25:51.348Z,9.38
2023-12-22T09:26:56.693Z,8.53
2023-12-22T09:28:03.387Z,29.05
2023-12-22T09:29:08.885Z,14.45
2023-12-22T09:30:16.215Z,10.05
2023-12-22T09:31:22.262Z,9.38
2023-12-22T09:32:29.913Z,9.50
2023-12-22T09:33:36.049Z,10.80
2023-12-22T09:34:43.345Z,8.38
2023-12-22T09:35:48.835Z,11.27
2023-12-22T09:36:55.537Z,10.13
2023-12-22T09:38:01.437Z,11.07
2023-12-22T09:39:09.832Z,14.98
2023-12-22T09:40:15.795Z,11.20
2023-12-22T09:41:22.539Z,11.50
2023-12-22T09:42:29.607Z,12.82
2023-12-22T09:43:36.939Z,12.25
2023-12-22T09:44:43.090Z,14.18
2023-12-22T09:45:49.997Z,11.95
2023-12-22T09:46:55.961Z,10.77
2023-12-22T09:48:04.449Z,9.52
2023-12-22T09:49:10.286Z,10.47
2023-12-22T09:50:18.205Z,10.95
2023-12-22T09:51:23.690Z,11.82
2023-12-22T09:52:31.521Z,11.63
2023-12-22T09:53:37.566Z,15.50
2023-12-22T09:54:46.802Z,9.90
2023-12-22T09:55:53.473Z,12.77
2023-12-22T09:57:01.685Z,11.15
2023-12-22T09:58:11.553Z,15.48
2023-12-22T09:59:18.620Z,14.40
2023-12-22T10:00:25.650Z,12.20
2023-12-22T10:01:33.972Z,13.30
2023-12-22T10:02:40.238Z,14.35
2023-12-22T10:03:48.482Z,17.50
2023-12-22T10:04:54.183Z,11.27
2023-12-22T10:06:01.226Z,12.57
2023-12-22T10:07:07.290Z,12.77
2023-12-22T10:08:14.756Z,12.60
2023-12-22T10:09:20.743Z,11.27
2023-12-22T10:10:29.407Z,13.30
2023-12-22T10:11:36.258Z,13.70
2023-12-22T10:12:42.561Z,19.92
2023-12-22T10:13:49.452Z,15.43
2023-12-22T10:14:55.584Z,16.92
2023-12-22T10:16:02.424Z,14.90
2023-12-22T10:17:08.103Z,12.85
2023-12-22T10:18:15.516Z,13.73
2023-12-22T10:19:21.086Z,13.10
2023-12-22T10:20:27.865Z,12.80
2023-12-22T10:21:35.848Z,13.38
2023-12-22T10:22:42.901Z,17.57
2023-12-22T10:23:48.251Z,14.57
2023-12-22T10:24:53.938Z,22.58
2023-12-22T10:26:03.338Z,12.40
2023-12-22T10:27:09.541Z,16.25
2023-12-22T10:28:17.891Z,20.77
2023-12-22T10:29:23.375Z,11.55
2023-12-22T10:30:30.546Z,14.95
2023-12-22T10:31:43.881Z,12.02
2023-12-22T10:32:50.725Z,24.60
2023-12-22T10:33:56.694Z,13.93
2023-12-22T10:35:03.422Z,18.00
2023-12-22T10:36:10.746Z,15.20
2023-12-22T10:37:17.541Z,18.05
2023-12-22T10:38:23.295Z,18.50
2023-12-22T10:39:33.076Z,34.70
2023-12-22T10:40:41.027Z,18.52
2023-12-22T10:41:49.721Z,15.13
2023-12-22T10:42:55.352Z,20.42
2023-12-22T10:44:03.463Z,14.55
2023-12-22T10:45:10.544Z,15.60
2023-12-22T10:46:17.406Z,13.48
2023-12-22T10:47:23.829Z,16.20
2023-12-22T10:48:30.906Z,20.92
2023-12-22T10:49:36.695Z,22.65
2023-12-22T10:50:45.707Z,23.33
2023-12-22T10:51:51.096Z,24.50
2023-12-22T10:52:57.818Z,18.88
2023-12-22T10:54:03.217Z,16.98
2023-12-22T10:55:10.670Z,18.52
2023-12-22T10:56:16.096Z,19.50
2023-12-22T10:57:24.999Z,21.10
2023-12-22T10:58:32.785Z,15.75
2023-12-22T10:59:50.703Z,16.90
2023-12-22T11:01:02.269Z,21.92
2023-12-22T11:02:09.876Z,14.93
2023-12-22T11:03:18.353Z,15.15
2023-12-22T11:04:26.123Z,19.10
2023-12-22T11:05:31.873Z,17.40
2023-12-22T11:06:40.102Z,16.27
2023-12-22T11:07:46.527Z,18.57
2023-12-22T11:08:56.199Z,17.55
2023-12-22T11:10:06.416Z,18.95
2023-12-22T11:11:17.944Z,15.63
2023-12-22T11:12:25.829Z,17.75
2023-12-22T11:13:32.589Z,14.80
2023-12-22T11:14:38.682Z,20.02
2023-12-22T11:15:45.782Z,17.13
2023-12-22T11:16:51.700Z,17.48
2023-12-22T11:18:01.652Z,19.50
2023-12-22T11:19:07.335Z,14.43
2023-12-22T11:20:15.482Z,20.25
2023-12-22T11:21:21.441Z,17.83
2023-12-22T11:22:28.243Z,19.13
2023-12-22T11:23:36.164Z,16.27
2023-12-22T11:24:44.121Z,18.30
2023-12-22T11:25:53.024Z,14.90
2023-12-22T11:27:00.035Z,17.00
2023-12-22T11:28:08.782Z,16.67
2023-12-22T11:29:15.602Z,17.77
2023-12-22T11:30:22.713Z,17.63
2023-12-22T11:31:32.080Z,25.48
2023-12-22T11:32:38.305Z,17.48
2023-12-22T11:33:58.644Z,16.00
2023-12-22T11:35:11.823Z,18.77
2023-12-22T11:36:19.017Z,18.27
2023-12-22T11:37:24.462Z,19.70
2023-12-22T11:38:34.245Z,19.50
2023-12-22T11:39:39.584Z,21.50
2023-12-22T11:40:46.352Z,22.00
2023-12-22T11:41:52.101Z,25.10
2023-12-22T11:42:59.299Z,29.17
2023-12-22T11:44:07.647Z,46.42
2023-12-22T11:45:18.261Z,46.05
2023-12-22T11:46:23.733Z,53.25
2023-12-22T11:47:30.782Z,58.78
2023-12-22T11:48:36.802Z,57.53
2023-12-22T11:49:43.602Z,75.65
2023-12-22T11:50:49.064Z,78.43
2023-12-22T11:51:55.980Z,67.10
2023-12-22T11:53:08.100Z,83.73
2023-12-22T11:54:47.103Z,80.00
2023-12-22T11:56:03.531Z,93.47
2023-12-22T11:57:10.236Z,96.30
2023-12-22T11:58:37.090Z,90.50
2023-12-22T11:59:45.674Z,68.35
2023-12-22T12:00:56.830Z,40.03
2023-12-22T12:02:05.003Z,38.92
2023-12-22T12:03:10.727Z,35.65
2023-12-22T12:04:17.560Z,32.50
2023-12-22T12:05:22.972Z,27.03
2023-12-22T12:06:39.517Z,27.80
2023-12-22T12:07:50.463Z,25.85
2023-12-22T12:08:57.711Z,23.50
2023-12-22T12:10:03.193Z,23.23
2023-12-22T12:11:14.022Z,25.45
2023-12-22T12:12:20.675Z,23.70
2023-12-22T12:13:28.309Z,28.10
2023-12-22T12:14:37.338Z,25.45
2023-12-22T12:15:45.954Z,25.65
2023-12-22T12:16:52.892Z,25.97
2023-12-22T12:17:58.420Z,25.63
2023-12-22T12:19:06.084Z,25.20
2023-12-22T12:20:13.089Z,27.77
2023-12-22T12:21:21.060Z,28.35
2023-12-22T12:22:27.699Z,28.23
2023-12-22T12:23:34.406Z,28.13
2023-12-22T12:24:40.836Z,29.75
2023-12-22T12:25:47.864Z,31.48
2023-12-22T12:26:54.536Z,34.08
2023-12-22T12:28:07.426Z,34.93
2023-12-22T12:29:13.088Z,30.58
2023-12-22T12:30:20.185Z,30.13
2023-12-22T12:31:40.504Z,31.17
2023-12-22T12:32:47.933Z,32.75
2023-12-22T12:33:54.898Z,33.83
2023-12-22T12:35:01.454Z,38.58
2023-12-22T12:36:09.245Z,33.15
2023-12-22T12:37:15.280Z,34.63
2023-12-22T12:38:22.955Z,35.38
2023-12-22T12:39:31.056Z,35.17
2023-12-22T12:40:38.181Z,36.30
2023-12-22T12:41:46.267Z,35.15
2023-12-22T12:42:53.064Z,30.88
2023-12-22T12:43:59.140Z,42.47
2023-12-22T12:45:05.828Z,38.20
2023-12-22T12:46:11.089Z,36.17
2023-12-22T12:47:19.995Z,32.22
2023-12-22T12:48:25.520Z,40.42
2023-12-22T12:49:33.433Z,43.67
2023-12-22T12:50:39.147Z,52.17
2023-12-22T12:51:49.140Z,43.95
2023-12-22T12:52:56.655Z,55.45
2023-12-22T12:54:03.816Z,59.85
2023-12-22T12:55:10.137Z,55.88
2023-12-22T12:56:17.551Z,53.30
2023-12-22T12:57:23.699Z,55.67
2023-12-22T12:58:34.150Z,53.58
2023-12-22T12:59:40.041Z,53.45
2023-12-22T13:00:46.834Z,61.25
2023-12-22T13:01:52.746Z,46.97
2023-12-22T13:03:01.720Z,45.50
2023-12-22T13:04:07.345Z,50.67
2023-12-22T13:05:14.329Z,51.10
2023-12-22T13:06:19.772Z,52.67
2023-12-22T13:07:29.911Z,60.42
2023-12-22T13:08:39.288Z,60.13
2023-12-22T13:09:51.882Z,57.00
2023-12-22T13:11:04.618Z,71.45
2023-12-22T13:12:11.495Z,71.95
2023-12-22T13:13:16.849Z,65.27
2023-12-22T13:14:29.871Z,72.95
2023-12-22T13:15:35.215Z,77.43
2023-12-22T13:16:42.699Z,74.38
2023-12-22T13:17:48.815Z,81.55
2023-12-22T13:18:57.893Z,86.43
2023-12-22T13:20:03.350Z,79.57
2023-12-22T13:21:10.274Z,88.05
2023-12-22T13:22:16.832Z,97.72
2023-12-22T13:23:24.605Z,108.40
2023-12-22T13:24:31.006Z,103.90
2023-12-22T13:25:44.014Z,107.25
2023-12-22T13:26:49.460Z,116.57
2023-12-22T13:27:58.623Z,97.25
2023-12-22T13:29:04.092Z,91.00
2023-12-22T13:30:11.859Z,92.35
2023-12-22T13:31:17.367Z,79.32
2023-12-22T13:32:26.558Z,75.47
2023-12-22T13:33:37.942Z,69.35
2023-12-22T13:34:53.066Z,84.40
2023-12-22T13:36:00.738Z,72.27
2023-12-22T13:37:08.554Z,79.65
2023-12-22T13:38:14.034Z,77.43
2023-12-22T13:39:20.862Z,65.93
2023-12-22T13:40:26.310Z,67.35
2023-12-22T13:41:33.189Z,67.43
2023-12-22T13:42:40.410Z,75.47
2023-12-22T13:43:48.048Z,74.93
2023-12-22T13:44:55.272Z,70.32
2023-12-22T13:46:02.679Z,84.97
2023-12-22T13:47:08.842Z,88.93
2023-12-22T13:48:15.728Z,86.15
2023-12-22T13:49:21.321Z,87.20
2023-12-22T13:50:29.832Z,93.38
2023-12-22T13:51:47.755Z,88.85
2023-12-22T13:52:54.927Z,87.90
2023-12-22T13:54:02.410Z,81.10
2023-12-22T13:55:15.929Z,83.70
2023-12-22T13:56:21.304Z,85.45
2023-12-22T13:57:28.267Z,72.50
2023-12-22T13:58:33.732Z,77.80
2023-12-22T13:59:40.438Z,70.97
2023-12-22T14:00:47.626Z,67.28
2023-12-22T14:01:54.465Z,78.57
2023-12-22T14:03:00.133Z,73.95
2023-12-22T14:04:07.070Z,64.82
2023-12-22T14:05:12.743Z,77.70
2023-12-22T14:06:21.421Z,80.22
2023-12-22T14:07:26.876Z,71.53
2023-12-22T14:08:35.525Z,68.78
2023-12-22T14:09:41.108Z,86.77
2023-12-22T14:10:51.221Z,77.68
2023-12-22T14:12:02.193Z,73.88
2023-12-22T14:13:12.398Z,66.60
2023-12-22T14:14:19.455Z,66.55
2023-12-22T14:15:31.303Z,74.03
2023-12-22T14:16:42.674Z,80.65
2023-12-22T14:17:49.714Z,73.18
2023-12-22T14:18:55.302Z,68.45
2023-12-22T14:20:02.370Z,71.68
2023-12-22T14:21:08.091Z,71.47
2023-12-22T14:22:16.768Z,72.32
2023-12-22T14:23:22.646Z,64.38
2023-12-22T14:24:29.450Z,72.30
2023-12-22T14:25:34.976Z,71.50
2023-12-22T14:26:59.078Z,74.20
2023-12-22T14:28:04.478Z,69.32
2023-12-22T14:29:12.183Z,67.18
2023-12-22T14:30:18.609Z,68.70
2023-12-22T14:31:25.577Z,69.55
2023-12-22T14:32:32.438Z,64.73
2023-12-22T14:33:39.429Z,61.28
2023-12-22T14:34:45.032Z,67.05
2023-12-22T14:35:51.923Z,71.07
2023-12-22T14:36:57.316Z,69.97
2023-12-22T14:38:06.418Z,63.95